BKN weather

Blackwell Tonkawa Municipal Airport
Blackwell, Oklahoma, United States

Public forecast

Using degrees Fahrenheit for public forecast. Weather courtesy of forecast.io.

METAR (pilot weather report)

Retrieved 2019/05/26 16:35 UTC (0 seconds ago):

KBKN 261635Z AUTO 08013G18KT 10SM BKN024 BKN032 BKN055 23/22 A3010 RMK AO2

TAF (pilot weather forecast)

Closest forecast is Ponca City Regional Airport, 12.0 nm (22.3 km) E. Retrieved 2019/05/26 12:36 UTC (4 hours ago):

TAF KPNC 261134Z 2612/2712 13011KT P6SM SCT007 OVC040 TEMPO 2612/2614 2SM TSRA BKN025CB FM261500 17013G20KT P6SM SCT025 BKN040 TEMPO 2615/2618 BKN025 FM262300 15013KT P6SM SCT040 BKN250 PROB30 2708/2712 TSRA BKN040CB